Time;durP1;ratioP1;P1;durP2;ratioP2;P2;SDS_P1;SDS_P2;PMS_P1;PMS_P2;Temp;Humidity;BMP_temperature;BMP_pressure;BME280_temperature;BME280_humidity;BME280_pressure;Samples;Min_cycle;Max_cycle;Signal;HPM_P1;HPM_P2
2022/06/17 12:24:58;;;;;;;0.70;0.50;;;28.10;42.90;;;;;;5091566;28;20551;-73
2022/06/17 12:27:28;;;;;;;0.90;0.70;;;28.10;42.00;;;;;;5091089;28;20483;-73
2022/06/17 12:30:01;;;;;;;0.63;0.50;;;28.20;43.00;;;;;;5090689;28;20932;-74
2022/06/17 12:32:34;;;;;;;0.80;0.60;;;28.60;43.60;;;;;;5090991;28;20490;-73
2022/06/17 12:35:06;;;;;;;0.70;0.60;;;28.90;41.70;;;;;;5090917;28;20494;-73
2022/06/17 12:37:42;;;;;;;0.67;0.50;;;29.30;41.80;;;;;;5092178;28;20429;-74
2022/06/17 12:40:20;;;;;;;0.60;0.50;;;29.70;41.30;;;;;;5090759;28;20429;-72
2022/06/17 12:42:52;;;;;;;0.80;0.60;;;29.70;41.50;;;;;;5090563;28;20534;-73
2022/06/17 12:45:26;;;;;;;0.70;0.60;;;30.00;40.00;;;;;;5090390;28;20429;-73
2022/06/17 12:48:06;;;;;;;0.70;0.60;;;30.30;40.30;;;;;;5090579;28;20433;-73
2022/06/17 12:53:41;;;;;;;0.60;0.50;;;30.50;39.60;;;;;;5090265;28;20399;-73
2022/06/17 12:56:31;;;;;;;0.70;0.60;;;30.80;38.70;;;;;;5090462;28;20425;-74
2022/06/17 12:59:13;;;;;;;0.60;0.57;;;30.50;38.20;;;;;;5090449;28;20443;-73
2022/06/17 13:01:43;;;;;;;0.70;0.60;;;30.50;38.30;;;;;;5090232;28;20467;-74
2022/06/17 13:04:26;;;;;;;0.67;0.60;;;30.50;38.60;;;;;;5090235;28;20468;-74
2022/06/17 13:07:03;;;;;;;0.60;0.60;;;30.50;37.90;;;;;;5090179;28;20433;-74
2022/06/17 13:09:41;;;;;;;0.70;0.60;;;30.50;38.00;;;;;;5090151;28;20838;-75
2022/06/17 13:12:18;;;;;;;0.70;0.60;;;30.50;40.40;;;;;;5090021;28;20469;-75
2022/06/17 13:14:52;;;;;;;0.70;0.60;;;30.80;37.90;;;;;;5090815;28;20429;-75
2022/06/17 13:17:27;;;;;;;0.60;0.50;;;30.80;39.00;;;;;;5089665;28;20776;-72
2022/06/17 13:19:58;;;;;;;0.80;0.60;;;30.70;39.60;;;;;;5089908;28;20435;-76
2022/06/17 13:22:33;;;;;;;0.80;0.60;;;30.80;38.60;;;;;;5089697;28;20460;-76
2022/06/17 13:25:06;;;;;;;0.70;0.60;;;31.00;37.90;;;;;;5089578;28;20886;-74
2022/06/17 13:27:38;;;;;;;0.60;0.60;;;31.20;37.80;;;;;;5089890;28;20433;-73
2022/06/17 13:30:10;;;;;;;0.87;0.70;;;31.60;38.60;;;;;;5089802;28;20432;-74
2022/06/17 13:32:40;;;;;;;0.70;0.60;;;31.80;38.10;;;;;;5089606;28;20522;-74
2022/06/17 13:35:17;;;;;;;1.37;0.70;;;31.50;37.20;;;;;;5081726;28;20426;-74
2022/06/17 13:37:51;;;;;;;0.60;0.50;;;31.40;37.40;;;;;;5076123;28;20483;-75
2022/06/17 13:40:23;;;;;;;0.60;0.50;;;31.40;38.00;;;;;;5075773;28;20920;-72
2022/06/17 13:42:56;;;;;;;0.67;0.60;;;31.20;37.10;;;;;;5075705;28;20520;-75
2022/06/17 13:45:31;;;;;;;0.60;0.50;;;31.40;37.50;;;;;;5075990;28;20480;-75
2022/06/17 13:48:11;;;;;;;0.60;0.50;;;31.50;38.20;;;;;;5075998;28;20430;-75
2022/06/17 13:50:47;;;;;;;0.60;0.50;;;31.30;36.60;;;;;;5075867;28;20438;-75
2022/06/17 13:53:24;;;;;;;0.60;0.50;;;31.30;37.10;;;;;;5075828;28;20434;-76
2022/06/17 13:55:59;;;;;;;0.70;0.60;;;31.40;35.60;;;;;;5075825;28;20433;-76
2022/06/17 13:58:34;;;;;;;0.60;0.50;;;31.40;35.70;;;;;;5075731;28;20466;-76
2022/06/17 14:01:08;;;;;;;0.60;0.60;;;31.70;37.60;;;;;;5075558;28;20544;-76
2022/06/17 14:04:11;;;;;;;0.60;0.50;;;31.70;36.00;;;;;;5075754;28;20472;-75
2022/06/17 14:07:00;;;;;;;0.83;0.50;;;30.80;38.10;;;;;;5075747;28;20422;-76
2022/06/17 14:09:31;;;;;;;0.70;0.60;;;30.70;37.10;;;;;;5076082;28;20448;-75
2022/06/17 14:12:00;;;;;;;0.60;0.60;;;30.40;36.80;;;;;;5075160;28;20968;-75
2022/06/17 14:14:42;;;;;;;0.67;0.57;;;30.80;36.20;;;;;;5075418;28;20449;-73
2022/06/17 14:17:17;;;;;;;0.70;0.60;;;30.60;36.10;;;;;;5075373;28;20479;-75
2022/06/17 14:19:49;;;;;;;0.70;0.60;;;30.30;35.50;;;;;;5075315;28;20430;-75
2022/06/17 14:22:19;;;;;;;0.67;0.50;;;30.20;36.10;;;;;;5075222;28;20514;-75
2022/06/17 14:25:17;;;;;;;0.60;0.50;;;30.40;37.10;;;;;;5075151;28;20519;-75
2022/06/17 14:27:51;;;;;;;0.70;0.60;;;30.80;36.30;;;;;;5075322;28;20445;-76
2022/06/17 14:30:36;;;;;;;0.70;0.50;;;31.10;36.10;;;;;;5074920;28;20498;-76
2022/06/17 14:33:03;;;;;;;0.70;0.60;;;31.50;35.80;;;;;;5075112;28;20427;-76
2022/06/17 14:35:33;;;;;;;0.70;0.60;;;31.40;34.30;;;;;;5075825;28;20511;-76
2022/06/17 14:38:17;;;;;;;0.63;0.53;;;30.80;34.50;;;;;;5074981;28;20454;-76
2022/06/17 14:43:33;;;;;;;0.60;0.50;;;30.60;35.70;;;;;;5074792;28;20966;-75
2022/06/17 14:46:02;;;;;;;0.70;0.60;;;30.50;36.10;;;;;;5074236;28;20527;-74
2022/06/17 14:48:37;;;;;;;1.73;0.60;;;30.90;35.70;;;;;;5074206;28;20454;-75
2022/06/17 14:51:31;;;;;;;0.63;0.53;;;31.00;35.40;;;;;;5074645;28;20469;-75
2022/06/17 14:53:59;;;;;;;0.60;0.57;;;31.20;36.20;;;;;;5074128;28;20447;-75
2022/06/17 14:56:45;;;;;;;0.70;0.50;;;31.10;35.10;;;;;;5074589;28;20461;-76
2022/06/17 14:59:34;;;;;;;0.77;0.60;;;30.80;34.10;;;;;;5074269;28;20425;-75
2022/06/17 15:02:18;;;;;;;0.70;0.60;;;30.70;35.20;;;;;;5074090;28;20972;-76
2022/06/17 15:04:47;;;;;;;0.60;0.60;;;30.70;35.30;;;;;;5074385;28;20534;-76
2022/06/17 15:07:23;;;;;;;0.60;0.50;;;30.70;35.00;;;;;;5074041;28;20928;-75
2022/06/17 15:09:56;;;;;;;0.70;0.60;;;30.90;34.70;;;;;;5074333;28;20426;-75
2022/06/17 15:12:28;;;;;;;0.60;0.50;;;31.30;34.10;;;;;;5073915;28;20980;-75
2022/06/17 15:15:01;;;;;;;0.60;0.50;;;31.50;34.90;;;;;;5074151;28;20426;-74
2022/06/17 15:17:37;;;;;;;0.60;0.50;;;31.80;33.90;;;;;;5074264;28;20459;-74
2022/06/17 15:20:08;;;;;;;0.70;0.50;;;32.00;34.50;;;;;;5073871;28;20882;-76
2022/06/17 15:22:50;;;;;;;0.73;0.60;;;32.10;34.20;;;;;;5073835;28;20460;-76
2022/06/17 15:25:31;;;;;;;0.70;0.60;;;32.00;33.90;;;;;;5073668;28;20923;-76
2022/06/17 15:28:08;;;;;;;0.70;0.50;;;32.10;34.50;;;;;;5074058;28;20487;-76
2022/06/17 15:30:39;;;;;;;0.60;0.50;;;32.30;33.60;;;;;;5073897;28;20453;-76
2022/06/17 15:33:18;;;;;;;0.70;0.50;;;32.20;34.10;;;;;;5073967;28;20430;-76
2022/06/17 15:35:46;;;;;;;0.70;0.60;;;32.30;34.30;;;;;;5073917;28;20433;-77
2022/06/17 15:38:23;;;;;;;0.60;0.60;;;32.30;35.10;;;;;;5073706;28;20880;-76
2022/06/17 15:40:49;;;;;;;0.60;0.57;;;32.10;34.00;;;;;;5073678;28;20848;-75
2022/06/17 15:43:18;;;;;;;0.80;0.60;;;31.50;34.40;;;;;;5073406;28;21014;-76
2022/06/17 15:45:47;;;;;;;0.60;0.50;;;31.50;35.20;;;;;;5073723;28;20491;-75
2022/06/17 15:48:25;;;;;;;1.17;0.60;;;31.70;35.30;;;;;;5073648;28;20449;-75
2022/06/17 15:50:56;;;;;;;0.60;0.50;;;32.00;34.60;;;;;;5073671;28;20586;-76
2022/06/17 15:53:29;;;;;;;0.60;0.50;;;32.30;34.20;;;;;;5073638;28;20513;-76
2022/06/17 15:55:56;;;;;;;0.93;0.63;;;32.50;34.10;;;;;;5073353;28;20868;-76
2022/06/17 15:58:32;;;;;;;0.70;0.60;;;32.50;34.20;;;;;;5073311;28;20528;-76
2022/06/17 16:01:05;;;;;;;0.60;0.50;;;32.30;34.80;;;;;;5073150;28;20999;-75
2022/06/17 16:03:34;;;;;;;0.70;0.60;;;32.30;35.80;;;;;;5073485;28;20513;-76
2022/06/17 16:06:04;;;;;;;0.60;0.60;;;32.10;35.50;;;;;;5073499;28;20445;-75
2022/06/17 16:08:37;;;;;;;0.70;0.53;;;31.70;35.40;;;;;;5073408;28;20561;-75
2022/06/17 16:11:23;;;;;;;0.70;0.57;;;31.40;35.50;;;;;;5073443;28;20461;-76
2022/06/17 16:13:53;;;;;;;0.80;0.50;;;31.20;36.40;;;;;;5073622;28;20436;-76
2022/06/17 16:16:30;;;;;;;0.70;0.60;;;30.90;36.30;;;;;;5073053;28;20499;-75
2022/06/17 16:19:14;;;;;;;0.70;0.60;;;31.00;37.70;;;;;;5073020;28;20966;-76
2022/06/17 16:21:44;;;;;;;0.60;0.50;;;31.10;36.30;;;;;;5073266;28;20464;-76
2022/06/17 16:24:42;;;;;;;0.60;0.60;;;31.10;36.80;;;;;;5072841;28;20487;-76
2022/06/17 16:27:32;;;;;;;0.60;0.50;;;31.20;37.50;;;;;;5073299;28;20516;-76
2022/06/17 16:30:06;;;;;;;0.60;0.53;;;31.40;36.50;;;;;;5069230;28;20499;-75
2022/06/17 16:32:35;;;;;;;0.60;0.50;;;31.60;36.70;;;;;;5073160;28;20465;-76
2022/06/17 16:35:04;;;;;;;0.60;0.50;;;31.20;35.60;;;;;;5073190;28;20472;-76
2022/06/17 16:37:34;;;;;;;0.70;0.60;;;30.90;36.30;;;;;;5072886;28;20945;-76
2022/06/17 16:46:04;;;;;;;0.70;0.60;;;30.60;37.10;;;;;;5072960;28;20967;-74
2022/06/17 16:48:30;;;;;;;0.60;0.50;;;30.30;37.70;;;;;;5073159;28;20418;-74
2022/06/17 16:50:58;;;;;;;0.60;0.50;;;30.10;37.50;;;;;;5073056;28;20469;-73
2022/06/17 16:53:25;;;;;;;0.70;0.60;;;29.90;38.10;;;;;;5073291;28;20453;-73
2022/06/17 16:55:52;;;;;;;0.67;0.50;;;30.00;37.30;;;;;;5073012;28;20471;-73
2022/06/17 16:58:19;;;;;;;0.70;0.50;;;30.10;37.20;;;;;;5072608;28;20825;-73
2022/06/17 17:00:48;;;;;;;0.93;0.60;;;30.20;38.30;;;;;;5072883;28;20543;-73
2022/06/17 17:03:15;;;;;;;0.90;0.60;;;29.80;39.10;;;;;;5072827;28;20452;-73
2022/06/17 17:05:42;;;;;;;0.70;0.60;;;29.40;40.30;;;;;;5072536;28;20480;-73
2022/06/17 17:08:10;;;;;;;0.60;0.50;;;29.50;39.80;;;;;;5072542;28;20932;-73
2022/06/17 17:10:37;;;;;;;0.70;0.60;;;29.30;39.80;;;;;;5074548;28;20502;-73
2022/06/17 17:13:04;;;;;;;0.70;0.60;;;29.20;40.70;;;;;;5076584;28;20852;-73
2022/06/17 17:15:30;;;;;;;0.70;0.60;;;29.10;40.50;;;;;;5076533;28;20486;-73
2022/06/17 17:17:57;;;;;;;0.70;0.60;;;29.20;39.80;;;;;;5076507;28;20501;-73
2022/06/17 17:20:24;;;;;;;0.70;0.70;;;29.20;39.90;;;;;;5076366;28;20457;-73
2022/06/17 17:22:53;;;;;;;0.70;0.60;;;29.00;40.10;;;;;;5075954;28;20861;-73
2022/06/17 17:25:27;;;;;;;0.93;0.70;;;28.90;40.30;;;;;;5076064;28;20461;-73
2022/06/17 17:27:56;;;;;;;0.70;0.57;;;28.80;40.90;;;;;;5076377;28;20495;-73
2022/06/17 17:30:25;;;;;;;0.70;0.50;;;28.60;40.20;;;;;;5076215;28;20452;-73
2022/06/17 17:32:52;;;;;;;0.70;0.60;;;28.80;40.40;;;;;;5076228;28;20445;-73
2022/06/17 17:35:19;;;;;;;0.70;0.60;;;29.10;40.10;;;;;;5076194;28;20781;-73
2022/06/17 17:37:46;;;;;;;0.60;0.50;;;29.00;40.00;;;;;;5075874;28;20937;-73
2022/06/17 17:40:13;;;;;;;0.70;0.60;;;29.10;40.20;;;;;;5076088;28;20531;-73
2022/06/17 17:42:42;;;;;;;0.70;0.60;;;29.20;40.30;;;;;;5075639;28;20875;-73
2022/06/17 17:45:16;;;;;;;0.70;0.60;;;29.30;40.70;;;;;;5075932;28;20481;-73
2022/06/17 17:47:42;;;;;;;0.70;0.60;;;29.30;40.50;;;;;;5075957;28;20426;-73
2022/06/17 17:50:15;;;;;;;0.70;0.60;;;29.40;40.80;;;;;;5075892;28;20449;-73
2022/06/17 17:52:41;;;;;;;0.80;0.60;;;29.50;40.10;;;;;;5075851;28;20469;-73
2022/06/17 17:55:08;;;;;;;0.90;0.60;;;29.40;40.10;;;;;;5075830;28;20445;-73
2022/06/17 17:57:35;;;;;;;1.00;0.70;;;29.40;40.60;;;;;;5075769;28;20854;-73
2022/06/17 18:00:06;;;;;;;0.60;0.53;;;29.60;40.80;;;;;;5075785;28;20449;-73
2022/06/17 18:02:32;;;;;;;0.63;0.57;;;29.50;41.10;;;;;;5075345;28;20895;-73
2022/06/17 18:04:59;;;;;;;0.70;0.60;;;29.50;41.00;;;;;;5075560;28;20490;-73
2022/06/17 18:07:27;;;;;;;0.70;0.60;;;29.50;41.70;;;;;;5075598;28;20445;-73
2022/06/17 18:09:54;;;;;;;0.70;0.50;;;29.50;41.50;;;;;;5075573;28;20503;-73
2022/06/17 18:12:20;;;;;;;0.60;0.50;;;29.60;40.70;;;;;;5075390;28;20465;-73
2022/06/17 18:14:47;;;;;;;0.60;0.50;;;29.80;41.00;;;;;;5075441;28;20442;-73
2022/06/17 18:17:15;;;;;;;0.70;0.63;;;29.90;40.30;;;;;;5075421;28;20499;-73
2022/06/17 18:19:42;;;;;;;0.67;0.57;;;29.90;40.70;;;;;;5075364;28;20460;-73
2022/06/17 18:22:12;;;;;;;0.70;0.60;;;30.00;40.30;;;;;;5075163;28;20522;-73
2022/06/17 18:24:39;;;;;;;0.70;0.60;;;30.00;40.50;;;;;;5074826;28;20539;-73
2022/06/17 18:27:13;;;;;;;0.80;0.80;;;30.10;41.40;;;;;;5075288;28;20853;-73
2022/06/17 18:29:41;;;;;;;1.03;0.70;;;30.20;42.00;;;;;;5075203;28;20445;-73
2022/06/17 18:32:09;;;;;;;0.90;0.70;;;30.20;42.70;;;;;;5074898;28;20914;-73
2022/06/17 18:34:43;;;;;;;1.47;0.70;;;30.20;42.00;;;;;;5075135;28;20437;-73
2022/06/17 18:37:11;;;;;;;0.70;0.60;;;30.20;40.80;;;;;;5076174;28;20455;-73
2022/06/17 18:39:37;;;;;;;0.70;0.60;;;30.10;40.70;;;;;;5074970;28;20442;-73
2022/06/17 18:44:49;;;;;;;0.70;0.60;;;30.10;40.90;;;;;;5074843;28;20947;-73
2022/06/17 18:47:16;;;;;;;1.00;0.70;;;30.00;40.80;;;;;;5074868;28;20472;-73
2022/06/17 18:49:47;;;;;;;0.70;0.67;;;30.00;41.30;;;;;;5074796;28;20844;-73
2022/06/17 18:52:16;;;;;;;0.70;0.70;;;30.00;42.10;;;;;;5074712;28;20469;-73
2022/06/17 18:54:46;;;;;;;1.13;0.70;;;29.90;42.50;;;;;;5074848;28;20628;-73
2022/06/17 18:57:13;;;;;;;0.70;0.60;;;29.90;43.40;;;;;;5074798;28;20438;-73
2022/06/17 18:59:40;;;;;;;0.80;0.60;;;29.80;43.50;;;;;;5074642;28;20528;-73
2022/06/17 19:02:17;;;;;;;0.70;0.60;;;29.70;43.60;;;;;;5074464;28;20560;-73
2022/06/17 19:04:46;;;;;;;0.70;0.60;;;29.60;43.50;;;;;;5074484;28;20809;-73
2022/06/17 19:07:16;;;;;;;0.70;0.60;;;29.50;43.20;;;;;;5074453;28;20449;-73
2022/06/17 19:17:57;;;;;;;0.70;0.70;;;28.90;46.00;;;;;;5074431;28;20401;-73
2022/06/17 19:20:27;;;;;;;0.70;0.70;;;28.70;46.90;;;;;;5074096;28;20484;-73
2022/06/17 19:23:00;;;;;;;0.70;0.70;;;28.70;46.70;;;;;;5073927;28;20469;-73
2022/06/17 19:25:27;;;;;;;0.70;0.70;;;28.60;46.80;;;;;;5074017;28;20527;-73
2022/06/17 19:27:55;;;;;;;0.80;0.80;;;28.40;46.20;;;;;;5074014;28;20441;-73
2022/06/17 19:30:22;;;;;;;1.07;0.70;;;28.30;46.70;;;;;;5073993;28;20453;-74
2022/06/17 19:32:54;;;;;;;0.90;0.80;;;28.20;47.10;;;;;;5073523;28;20880;-73
2022/06/17 19:35:25;;;;;;;0.90;0.90;;;28.00;46.70;;;;;;5073930;28;20422;-73
2022/06/17 19:37:53;;;;;;;1.30;0.90;;;27.90;48.30;;;;;;5073874;28;20434;-75
2022/06/17 19:40:23;;;;;;;2.20;0.73;;;27.80;48.40;;;;;;5073514;28;20960;-75
2022/06/17 19:42:50;;;;;;;0.80;0.77;;;27.70;48.10;;;;;;5073554;28;20476;-74
2022/06/17 19:45:17;;;;;;;0.70;0.70;;;27.60;48.60;;;;;;5073692;28;20488;-75
2022/06/17 19:47:45;;;;;;;0.70;0.70;;;27.50;48.90;;;;;;5073792;28;20449;-74
2022/06/17 19:50:18;;;;;;;0.70;0.70;;;27.40;48.90;;;;;;5073716;28;20442;-74
2022/06/17 19:52:46;;;;;;;0.73;0.70;;;27.40;48.90;;;;;;5073642;28;20469;-74
2022/06/17 19:55:18;;;;;;;0.70;0.60;;;27.30;47.10;;;;;;5073694;28;20540;-74
2022/06/17 19:57:44;;;;;;;0.70;0.57;;;27.10;47.90;;;;;;5073666;28;20543;-74
2022/06/17 20:00:13;;;;;;;0.70;0.60;;;27.00;48.50;;;;;;5073610;28;20445;-74
2022/06/17 20:02:41;;;;;;;0.80;0.80;;;26.90;48.80;;;;;;5073469;28;20515;-75
2022/06/17 20:05:20;;;;;;;0.70;0.60;;;26.80;48.10;;;;;;5073166;28;21057;-75
2022/06/17 20:07:46;;;;;;;0.70;0.60;;;26.70;49.00;;;;;;5073536;28;20429;-75
2022/06/17 20:10:17;;;;;;;0.70;0.57;;;26.60;48.50;;;;;;5073467;28;20445;-75
2022/06/17 20:12:44;;;;;;;0.60;0.50;;;26.40;46.90;;;;;;5073400;28;20466;-75
2022/06/17 20:15:13;;;;;;;0.67;0.50;;;26.40;47.90;;;;;;5073102;28;21004;-75
2022/06/17 20:17:40;;;;;;;0.70;0.50;;;26.30;48.20;;;;;;5073373;28;20449;-75
2022/06/17 20:20:07;;;;;;;0.70;0.60;;;26.00;46.50;;;;;;5073392;28;20974;-75
2022/06/17 20:22:35;;;;;;;0.70;0.60;;;25.90;48.00;;;;;;5073161;28;20469;-75
2022/06/17 20:25:05;;;;;;;0.90;0.60;;;26.00;48.90;;;;;;5072984;28;20849;-75
2022/06/17 20:27:35;;;;;;;1.27;0.60;;;26.00;48.50;;;;;;5073519;28;20532;-76
2022/06/17 20:30:04;;;;;;;1.20;0.60;;;26.00;48.60;;;;;;5073337;28;20434;-75
2022/06/17 20:32:31;;;;;;;1.00;0.60;;;26.00;48.50;;;;;;5073229;28;20469;-75
2022/06/17 20:34:58;;;;;;;0.60;0.50;;;26.00;48.20;;;;;;5073230;28;20464;-76
2022/06/17 20:37:28;;;;;;;0.70;0.50;;;26.00;49.00;;;;;;5073183;28;20449;-76
2022/06/17 20:39:55;;;;;;;0.67;0.53;;;26.10;48.50;;;;;;5073078;28;20936;-75
2022/06/17 20:42:25;;;;;;;1.90;0.50;;;26.10;48.30;;;;;;5073210;28;20860;-75
2022/06/17 20:50:23;;;;;;;0.60;0.50;;;26.00;48.90;;;;;;5076936;28;20939;-75
2022/06/17 20:52:50;;;;;;;0.70;0.57;;;26.00;48.10;;;;;;5077067;28;20445;-74
2022/06/17 20:55:23;;;;;;;1.00;0.60;;;26.00;48.00;;;;;;5076768;28;20863;-74
